KMXO/MXO METAR and TAF weather

Enter ICAO airport designator
Station Type Date Time Source
KMXO METAR 2020/09/30 14:55 UTC NOAA

KMXO 301455Z AUTO 29021G27KT 10SM CLR 16/07 A2967 RMK AO2


Station Type Date Time Source
KMXO Decoded METAR 2020/09/30 14:55 UTC NOAA

Monticello Municipal, IA, United States (KMXO) 42-14N 091-10W
Sep 30, 2020 - 10:55 AM EDT / 2020.09.30 1455 UTC
Wind: from the WNW (290 degrees) at 24 MPH (21 KT) gusting to 31 MPH (27 KT):0
Visibility: 10 mile(s):0
Sky conditions: clear
Temperature: 60 F (16 C)
Dew Point: 44 F (7 C)
Relative Humidity: 55%
Pressure (altimeter): 29.67 in. Hg (1004 hPa)
ob: KMXO 301455Z AUTO 29021G27KT 10SM CLR 16/07 A2967 RMK AO2
cycle: 15

Station Type Date Time Source
KMXO TAF UTC NOAA

Error!

Example: see airport list